Flight Track Log - Related Links

Times and Time Zones

All times are in EST time to prevent confusion due to time zone crossing. See the N851MA flight status page for this flight to view local times or setup timezone preferences in your user account.

Time Position Orientation Groundspeed Altitude Reporting Facility
EST Latitude Longitude Course Direction KTS MPH feet Rate Location/Type
Thu 01:35:10 PM 41.6689 -85.9347 168° South 178 205 3,100  Level Chicago Center
Thu 01:36:12 PM 41.6267 -85.9122 158° South 170 196 4,600 912 Climbing Chicago Center
Thu 01:37:15 PM 41.5808 -85.8933 163° South 169 194 5,000 192 Climbing Chicago Center
Thu 01:38:00 PM 41.4136 -85.9276 168° South  Level Estimated
Thu 01:38:17 PM 41.5147 -85.8764 169° South 187 215 5,000  Level Chicago Center
Thu 01:39:00 PM 41.3527 -85.9109 168° South  Level FlightAware Approximate
Thu 01:39:19 PM 41.4597 -85.8642 171° South 197 227 5,000  Level Chicago Center
Thu 01:40:00 PM 41.2918 -85.8943 168° South  Level FlightAware Approximate
Thu 01:40:21 PM 41.4050 -85.8592 176° South 199 229 4,900  Level Chicago Center
Thu 01:41:23 PM 41.3514 -85.8564 178° South 197 227 5,000 48 Climbing Chicago Center
Thu 01:42:25 PM 41.2978 -85.8547 179° South 195 224 5,000  Level Chicago Center
Thu 01:43:27 PM 41.2314 -85.8375 169° South 198 228 5,000  Level Chicago Center
Thu 01:44:29 PM 41.1764 -85.8267 172° South 200 230 5,000  Level Chicago Center
Thu 01:45:32 PM 41.1203 -85.8142 170° South 202 232 5,000 54 Level Chicago Center
Thu 01:46:21 PM 41.0708 -85.8058 173° South 207 238 5,100 98 Climbing Chicago Center
Thu 01:46:33 PM 41.0631 -85.8033 166° South 205 236 5,100 -167 Level Chicago Center
Thu 01:46:57 PM 41.0336 -85.7986 173° South 205 236 5,000 -95 Descending Chicago Center
Thu 01:47:36 PM 41.0072 -85.7931 171° South 205 236 5,000 98 Level Chicago Center
Thu 01:47:58 PM 40.9797 -85.7875 171° South 203 234 5,100 97 Climbing Chicago Center
Thu 01:48:38 PM 40.9511 -85.7817 171° South 205 236 5,100 -98 Level Chicago Center
Thu 01:48:59 PM 40.9214 -85.7792 176° South 204 235 5,000 -97 Descending Chicago Center
Thu 01:49:40 PM 40.8839 -85.7686 168° South 204 235 5,000 100 Level Chicago Center
Thu 01:49:59 PM 40.8656 -85.7653 172° South 206 237 5,100 97 Climbing Chicago Center
Thu 01:50:42 PM 40.8275 -85.7564 170° South 205 236 5,100 -98 Level Chicago Center
Thu 01:51:00 PM 40.8075 -85.7542 175° South 207 238 5,000  Descending Chicago Center
Thu 01:51:44 PM 40.7703 -85.7444 169° South 206 237 5,100 100 Climbing Chicago Center
Thu 01:52:00 PM 40.7514 -85.7433 177° South 208 239 5,100  Level Chicago Center
Thu 01:52:46 PM 40.7139 -85.7336 169° South 206 237 5,100  Level Chicago Center
Thu 01:53:01 PM 40.6914 -85.7322 177° South 207 238 5,100 -97 Level Chicago Center
Thu 01:53:48 PM 40.6561 -85.7222 168° South 208 239 5,000  Descending Chicago Center
Thu 01:53:56 PM 40.6414 -85.7214 178° South 206 237 5,100 -290 Climbing Chicago Center
Thu 01:54:50 PM 40.5878 -85.7083 170° South 208 239 4,700 -400 Descending Chicago Center
Thu 01:54:56 PM 40.5814 -85.7103 193° South 211 243 4,700 -387 Level Chicago Center
Thu 01:55:52 PM 40.5278 -85.6950 168° South 212 244 4,300 -356 Descending Chicago Center
Thu 01:56:54 PM 40.4669 -85.6811 170° South 217 250 4,000 -144 Descending Chicago Center
Thu 01:57:57 PM 40.4108 -85.6722 173° South 213 245 4,000 -110 Level Chicago Center
Thu 01:59:38 PM 40.3167 -85.6500 170° South 194 223 3,700 -373 Descending Indianapolis TRACON
Thu 02:00:38 PM 40.2667 -85.6333 166° South 196 226 3,000 -619 Descending Indianapolis TRACON
Thu 02:01:44 PM 40.2000 -85.6167 169° South 186 214 2,400 -450 Descending Indianapolis TRACON
Thu 02:02:38 PM 40.1667 -85.6000 159° South 156 180 2,100 -421 Descending Indianapolis TRACON
Thu 02:03:38 PM 40.1333 -85.6000 180° South 112 129 1,600 -500 Descending Indianapolis TRACON

Login

Don't have an account? Register now (free) for customized features, flight alerts, and more!